createdAt,value
2023-03-12T00:02:21.790Z,94.87
2023-03-12T00:04:48.471Z,94.63
2023-03-12T00:07:15.380Z,94.38
2023-03-12T00:09:42.194Z,94.54
2023-03-12T00:12:09.174Z,94.32
2023-03-12T00:14:36.304Z,94.16
2023-03-12T00:17:03.089Z,93.87
2023-03-12T00:19:29.827Z,93.63
2023-03-12T00:21:56.745Z,93.51
2023-03-12T00:24:23.614Z,93.52
2023-03-12T00:26:50.275Z,93.38
2023-03-12T00:29:17.129Z,92.75
2023-03-12T00:31:44.308Z,92.65
2023-03-12T00:34:11.520Z,92.75
2023-03-12T00:36:38.347Z,92.33
2023-03-12T00:39:05.300Z,92.24
2023-03-12T00:41:32.131Z,92.02
2023-03-12T00:43:58.958Z,91.63
2023-03-12T00:46:26.033Z,91.33
2023-03-12T00:48:52.893Z,91.03
2023-03-12T00:51:19.923Z,91.00
2023-03-12T00:53:46.852Z,90.66
2023-03-12T00:56:13.612Z,90.61
2023-03-12T00:58:42.796Z,90.52
2023-03-12T01:01:09.853Z,90.06
2023-03-12T01:03:36.616Z,90.04
2023-03-12T01:06:03.703Z,89.74
2023-03-12T01:08:31.059Z,89.49
2023-03-12T01:10:57.782Z,89.40
2023-03-12T01:13:24.505Z,89.22
2023-03-12T01:15:51.384Z,88.97
2023-03-12T01:18:18.187Z,88.90
2023-03-12T01:20:44.946Z,88.80
2023-03-12T01:23:11.715Z,88.64
2023-03-12T01:25:38.367Z,88.49
2023-03-12T01:28:05.304Z,88.23
2023-03-12T01:30:32.348Z,88.02
2023-03-12T01:32:59.270Z,87.96
2023-03-12T01:35:26.078Z,87.87
2023-03-12T01:37:53.478Z,87.80
2023-03-12T01:40:25.439Z,87.74
2023-03-12T01:42:58.898Z,87.81
2023-03-12T01:46:03.799Z,87.95
2023-03-12T01:49:05.867Z,87.63
2023-03-12T01:51:38.392Z,87.61
2023-03-12T01:54:11.493Z,87.43
2023-03-12T01:56:39.378Z,87.69
2023-03-12T01:59:22.000Z,87.42
2023-03-12T02:01:49.849Z,87.29
2023-03-12T02:04:19.384Z,87.07
2023-03-12T02:06:53.159Z,87.02
2023-03-12T02:09:21.604Z,87.22
2023-03-12T02:11:48.417Z,86.99
2023-03-12T02:14:15.636Z,87.21
2023-03-12T02:16:43.338Z,86.97
2023-03-12T02:19:20.974Z,86.87
2023-03-12T02:21:47.776Z,87.04
2023-03-12T02:24:25.408Z,86.95
2023-03-12T02:26:52.267Z,86.92
2023-03-12T02:29:19.170Z,87.01
2023-03-12T02:31:52.098Z,86.77
2023-03-12T02:34:18.728Z,86.91
2023-03-12T02:36:45.346Z,87.02
2023-03-12T02:39:13.417Z,86.86
2023-03-12T02:41:43.399Z,87.11
2023-03-12T02:44:15.889Z,87.15
2023-03-12T02:46:49.272Z,86.99
2023-03-12T02:49:17.933Z,87.02
2023-03-12T02:51:45.923Z,86.85
2023-03-12T02:54:14.871Z,87.18
2023-03-12T02:56:41.845Z,86.92
2023-03-12T02:59:09.626Z,86.97
2023-03-12T03:01:36.625Z,87.08
2023-03-12T03:04:05.115Z,87.07
2023-03-12T03:06:32.637Z,86.91
2023-03-12T03:08:59.939Z,86.84
2023-03-12T03:11:27.329Z,86.75
2023-03-12T03:13:55.087Z,86.89
2023-03-12T03:16:22.637Z,86.91
2023-03-12T03:18:49.709Z,87.07
2023-03-12T03:21:17.713Z,87.21
2023-03-12T03:23:48.543Z,86.93
2023-03-12T03:26:17.096Z,86.99
2023-03-12T03:31:09.994Z,87.26
2023-03-12T03:33:38.812Z,87.40
2023-03-12T03:36:08.191Z,87.41
2023-03-12T03:38:35.223Z,87.32
2023-03-12T03:41:02.586Z,87.15
2023-03-12T03:43:29.485Z,87.28
2023-03-12T03:46:00.659Z,87.45
2023-03-12T03:48:27.981Z,87.33
2023-03-12T03:50:54.761Z,87.41
2023-03-12T03:53:21.983Z,87.42
2023-03-12T03:55:48.902Z,87.58
2023-03-12T03:58:16.443Z,87.63
2023-03-12T04:00:45.649Z,87.60
2023-03-12T04:03:14.181Z,87.56
2023-03-12T04:05:45.214Z,87.74
2023-03-12T04:08:15.408Z,87.69
2023-03-12T04:10:42.112Z,87.78
2023-03-12T04:13:08.777Z,87.82
2023-03-12T04:15:35.732Z,87.73
2023-03-12T04:18:02.464Z,87.80
2023-03-12T04:20:29.136Z,87.64
2023-03-12T04:22:56.001Z,87.73
2023-03-12T04:25:22.742Z,87.42
2023-03-12T04:27:49.404Z,87.71
2023-03-12T04:30:16.254Z,87.39
2023-03-12T04:32:43.093Z,87.41
2023-03-12T04:35:09.850Z,87.28
2023-03-12T04:37:36.833Z,87.19
2023-03-12T04:40:07.587Z,87.15
2023-03-12T04:42:35.594Z,87.18
2023-03-12T04:45:03.756Z,86.95
2023-03-12T04:47:32.017Z,86.90
2023-03-12T04:49:58.851Z,86.71
2023-03-12T04:52:27.672Z,86.38
2023-03-12T04:54:54.621Z,86.46
2023-03-12T04:57:21.477Z,86.55
2023-03-12T04:59:48.373Z,86.26
2023-03-12T05:02:15.077Z,86.14
2023-03-12T05:04:41.748Z,86.25
2023-03-12T05:07:08.657Z,86.41
2023-03-12T05:09:35.451Z,86.12
2023-03-12T05:12:02.178Z,86.46
2023-03-12T05:14:28.974Z,86.20
2023-03-12T05:16:55.791Z,86.20
2023-03-12T05:19:22.453Z,86.26
2023-03-12T05:21:49.150Z,86.26
2023-03-12T05:24:16.424Z,86.58
2023-03-12T05:26:43.466Z,86.23
2023-03-12T05:29:10.337Z,86.38
2023-03-12T05:31:37.099Z,86.39
2023-03-12T05:34:04.550Z,86.53
2023-03-12T05:36:31.286Z,86.46
2023-03-12T05:38:58.101Z,86.55
2023-03-12T05:41:29.060Z,86.53
2023-03-12T05:43:56.957Z,86.28
2023-03-12T05:46:26.938Z,86.32
2023-03-12T05:48:53.916Z,86.48
2023-03-12T05:51:20.830Z,86.50
2023-03-12T05:53:47.578Z,86.35
2023-03-12T05:56:16.943Z,86.22
2023-03-12T05:58:44.783Z,86.41
2023-03-12T06:01:18.201Z,86.34
2023-03-12T06:03:45.569Z,86.22
2023-03-12T06:06:12.563Z,86.59
2023-03-12T06:08:40.194Z,86.43
2023-03-12T06:11:07.086Z,86.55
2023-03-12T06:13:34.525Z,86.54
2023-03-12T06:16:05.740Z,86.76
2023-03-12T06:18:33.953Z,86.55
2023-03-12T06:21:22.421Z,86.60
2023-03-12T06:23:49.925Z,86.60
2023-03-12T06:26:17.113Z,86.74
2023-03-12T06:28:45.644Z,86.77
2023-03-12T06:31:13.044Z,86.79
2023-03-12T06:33:39.773Z,86.78
2023-03-12T06:36:08.192Z,86.85
2023-03-12T06:38:35.074Z,86.89
2023-03-12T06:41:11.028Z,86.86
2023-03-12T06:43:39.163Z,87.02
2023-03-12T06:46:07.137Z,86.83
2023-03-12T06:48:36.810Z,86.86
2023-03-12T06:51:07.577Z,86.85
2023-03-12T06:53:34.542Z,86.80
2023-03-12T06:56:02.859Z,86.74
2023-03-12T06:58:29.659Z,87.05
2023-03-12T07:00:56.462Z,86.93
2023-03-12T07:03:23.240Z,86.70
2023-03-12T07:05:51.280Z,86.99
2023-03-12T07:08:18.895Z,86.93
2023-03-12T07:10:46.596Z,86.81
2023-03-12T07:13:14.053Z,86.84
2023-03-12T07:15:41.072Z,87.08
2023-03-12T07:18:09.910Z,86.84
2023-03-12T07:20:38.605Z,86.78
2023-03-12T07:23:05.945Z,86.74
2023-03-12T07:25:36.721Z,86.66
2023-03-12T07:28:03.787Z,86.77
2023-03-12T07:30:33.565Z,86.73
2023-03-12T07:33:03.192Z,86.55
2023-03-12T07:35:30.589Z,86.33
2023-03-12T07:37:57.861Z,86.25
2023-03-12T07:40:25.779Z,86.39
2023-03-12T07:42:52.590Z,86.30
2023-03-12T07:45:20.055Z,86.05
2023-03-12T07:47:47.550Z,86.02
2023-03-12T07:50:15.431Z,85.90
2023-03-12T07:52:42.224Z,86.09
2023-03-12T07:55:10.021Z,85.84
2023-03-12T07:57:37.990Z,85.91
2023-03-12T08:00:07.722Z,85.57
2023-03-12T08:02:35.052Z,85.62
2023-03-12T08:05:02.161Z,85.62
2023-03-12T08:07:32.451Z,85.22
2023-03-12T08:10:00.265Z,85.34
2023-03-12T08:12:27.852Z,85.20
2023-03-12T08:14:54.739Z,85.04
2023-03-12T08:17:22.109Z,84.84
2023-03-12T08:19:48.831Z,84.53
2023-03-12T08:22:15.508Z,84.60
2023-03-12T08:24:42.275Z,84.29
2023-03-12T08:27:09.643Z,84.17
2023-03-12T08:29:36.373Z,84.31
2023-03-12T08:32:05.285Z,84.35
2023-03-12T08:34:34.118Z,83.86
2023-03-12T08:37:01.390Z,83.66
2023-03-12T08:39:28.236Z,83.66
2023-03-12T08:41:55.666Z,83.09
2023-03-12T08:44:26.058Z,82.95
2023-03-12T08:46:52.852Z,82.62
2023-03-12T08:49:20.622Z,82.45
2023-03-12T08:51:47.774Z,82.21
2023-03-12T08:54:14.642Z,81.77
2023-03-12T08:56:43.349Z,81.86
2023-03-12T08:59:13.844Z,81.53
2023-03-12T09:01:43.627Z,81.53
2023-03-12T09:04:10.959Z,81.16
2023-03-12T09:06:38.671Z,81.35
2023-03-12T09:09:06.042Z,81.05
2023-03-12T09:11:34.325Z,80.92
2023-03-12T09:14:39.468Z,80.73
2023-03-12T09:16:49.910Z,80.62
2023-03-12T09:19:16.722Z,80.16
2023-03-12T09:21:43.641Z,80.22
2023-03-12T09:24:12.141Z,80.03
2023-03-12T09:26:38.860Z,79.36
2023-03-12T09:29:05.666Z,79.30
2023-03-12T09:31:33.192Z,78.84
2023-03-12T09:33:59.977Z,78.87
2023-03-12T09:36:26.731Z,78.25
2023-03-12T09:38:54.556Z,78.08
2023-03-12T09:41:29.097Z,77.74
2023-03-12T09:44:02.060Z,77.40
2023-03-12T09:46:44.735Z,77.04
2023-03-12T09:49:18.173Z,77.01
2023-03-12T09:51:52.692Z,77.04
2023-03-12T09:54:38.373Z,76.75
2023-03-12T09:57:13.066Z,76.54
2023-03-12T09:59:39.862Z,76.36
2023-03-12T10:02:26.759Z,76.53
2023-03-12T10:05:00.850Z,76.25
2023-03-12T10:07:36.107Z,75.68
2023-03-12T10:10:21.869Z,75.30
2023-03-12T10:13:00.608Z,75.16
2023-03-12T10:15:42.676Z,74.60
2023-03-12T10:18:49.069Z,74.39
2023-03-12T10:21:34.604Z,74.03
2023-03-12T10:24:20.633Z,73.57
2023-03-12T10:26:51.192Z,73.06
2023-03-12T10:29:32.951Z,72.70
2023-03-12T10:32:05.609Z,72.23
2023-03-12T10:34:44.106Z,71.96
2023-03-12T10:37:34.511Z,71.07
2023-03-12T10:40:02.204Z,70.46
2023-03-12T10:42:30.162Z,70.05
2023-03-12T10:45:11.879Z,69.23
2023-03-12T10:47:43.565Z,68.70
2023-03-12T10:50:22.486Z,68.01
2023-03-12T10:52:52.072Z,67.33
2023-03-12T10:55:29.730Z,66.49
2023-03-12T10:57:56.879Z,66.06
2023-03-12T11:00:26.871Z,65.41
2023-03-12T11:03:04.739Z,65.07
2023-03-12T11:05:37.289Z,64.30
2023-03-12T11:08:04.832Z,64.24
2023-03-12T11:10:46.795Z,63.75
2023-03-12T11:13:32.342Z,63.37
2023-03-12T11:16:25.126Z,62.87
2023-03-12T11:18:57.080Z,62.62
2023-03-12T11:21:24.074Z,62.66
2023-03-12T11:23:56.943Z,62.50
2023-03-12T11:26:45.163Z,62.13
2023-03-12T11:29:30.081Z,61.77
2023-03-12T11:32:15.120Z,61.85
2023-03-12T11:34:42.529Z,61.15
2023-03-12T11:37:14.783Z,61.13
2023-03-12T11:40:10.217Z,60.75
2023-03-12T11:42:42.878Z,60.18
2023-03-12T11:45:24.787Z,60.11
2023-03-12T11:47:55.951Z,59.92
2023-03-12T11:50:59.108Z,59.99
2023-03-12T11:53:39.985Z,59.60
2023-03-12T11:56:09.329Z,59.63
2023-03-12T11:58:59.216Z,59.88
2023-03-12T12:01:58.595Z,60.25
2023-03-12T12:05:00.335Z,60.67
2023-03-12T12:07:43.322Z,60.54
2023-03-12T12:10:30.082Z,61.11
2023-03-12T12:13:30.422Z,61.10
2023-03-12T12:16:18.849Z,61.46
2023-03-12T12:19:18.501Z,61.64
2023-03-12T12:21:57.158Z,61.88
2023-03-12T12:24:36.332Z,62.60
2023-03-12T12:27:22.043Z,62.74
2023-03-12T12:30:00.354Z,62.77
2023-03-12T12:32:36.310Z,62.98
2023-03-12T12:35:40.526Z,63.23
2023-03-12T12:38:39.838Z,63.53
2023-03-12T12:41:25.967Z,63.72
2023-03-12T12:44:05.106Z,63.88
2023-03-12T12:46:39.464Z,63.93
2023-03-12T12:49:24.137Z,64.00
2023-03-12T12:52:03.987Z,64.31
2023-03-12T12:54:39.432Z,64.47
2023-03-12T12:57:15.893Z,64.49
2023-03-12T12:59:53.105Z,64.41
2023-03-12T13:02:29.563Z,64.56
2023-03-12T13:04:58.337Z,64.78
2023-03-12T13:07:27.733Z,64.68
2023-03-12T13:09:57.386Z,64.52
2023-03-12T13:12:32.912Z,64.57
2023-03-12T13:15:01.220Z,64.47
2023-03-12T13:17:55.653Z,63.97
2023-03-12T13:20:29.106Z,64.11
2023-03-12T13:23:20.275Z,63.88
2023-03-12T13:26:04.721Z,63.92
2023-03-12T13:28:38.141Z,63.84
2023-03-12T13:31:29.333Z,63.68
2023-03-12T13:34:17.516Z,64.04
2023-03-12T13:36:51.786Z,64.13
2023-03-12T13:39:36.819Z,64.47
2023-03-12T13:42:35.238Z,64.38
2023-03-12T13:45:22.550Z,64.89
2023-03-12T13:47:51.131Z,65.11
2023-03-12T13:50:18.280Z,65.75
2023-03-12T13:52:57.068Z,65.93
2023-03-12T13:55:59.209Z,66.25
2023-03-12T13:58:28.025Z,66.61
2023-03-12T14:00:58.813Z,66.96
2023-03-12T14:03:31.440Z,67.25
2023-03-12T14:06:07.381Z,67.81
2023-03-12T14:08:42.927Z,68.17
2023-03-12T14:11:36.524Z,68.27
2023-03-12T14:14:18.486Z,68.66
2023-03-12T14:16:52.325Z,68.81
2023-03-12T14:19:28.412Z,69.22
2023-03-12T14:21:57.431Z,69.52
2023-03-12T14:24:38.323Z,69.17
2023-03-12T14:27:11.323Z,69.45
2023-03-12T14:29:48.936Z,69.73
2023-03-12T14:32:19.812Z,69.46
2023-03-12T14:34:54.210Z,69.75
2023-03-12T14:37:28.345Z,69.75
2023-03-12T14:40:00.841Z,69.77
2023-03-12T14:42:30.358Z,70.17
2023-03-12T14:45:10.448Z,70.19
2023-03-12T14:47:48.615Z,70.06
2023-03-12T14:50:22.827Z,70.09
2023-03-12T14:52:49.587Z,70.26
2023-03-12T14:55:21.045Z,70.15
2023-03-12T14:57:47.913Z,69.98
2023-03-12T15:00:28.603Z,70.19
2023-03-12T15:02:59.608Z,69.91
2023-03-12T15:05:26.883Z,70.24
2023-03-12T15:08:03.112Z,70.19
2023-03-12T15:10:31.643Z,70.38
2023-03-12T15:13:00.795Z,70.33
2023-03-12T15:15:48.602Z,70.23
2023-03-12T15:18:29.154Z,70.59
2023-03-12T15:20:58.067Z,70.69
2023-03-12T15:23:26.428Z,70.70
2023-03-12T15:26:22.213Z,70.49
2023-03-12T15:29:14.211Z,70.30
2023-03-12T15:31:49.464Z,70.28
2023-03-12T15:34:34.554Z,70.23
2023-03-12T15:37:04.885Z,70.31
2023-03-12T15:39:34.468Z,70.42
2023-03-12T15:42:16.316Z,70.64
2023-03-12T15:44:47.363Z,70.74
2023-03-12T15:47:20.738Z,70.84
2023-03-12T15:49:59.786Z,71.35
2023-03-12T15:52:33.808Z,71.26
2023-03-12T15:55:12.453Z,71.74
2023-03-12T15:57:51.298Z,71.58
2023-03-12T16:00:41.986Z,72.17
2023-03-12T16:03:19.570Z,72.26
2023-03-12T16:06:46.242Z,72.26
2023-03-12T16:09:21.687Z,72.52
2023-03-12T16:11:49.553Z,72.71
2023-03-12T16:14:36.431Z,72.76
2023-03-12T16:17:03.395Z,73.26
2023-03-12T16:19:34.312Z,73.50
2023-03-12T16:22:01.163Z,73.42
2023-03-12T16:24:28.056Z,73.59
2023-03-12T16:26:58.115Z,73.65
2023-03-12T16:29:34.329Z,74.06
2023-03-12T16:32:01.787Z,74.33
2023-03-12T16:34:29.122Z,74.44
2023-03-12T16:36:56.629Z,74.59
2023-03-12T16:39:23.939Z,74.54
2023-03-12T16:41:50.647Z,74.52
2023-03-12T16:44:21.728Z,74.86
2023-03-12T16:46:48.597Z,74.69
2023-03-12T16:49:17.417Z,74.91
2023-03-12T16:51:44.512Z,75.18
2023-03-12T16:54:12.143Z,74.92
2023-03-12T16:56:42.984Z,75.02
2023-03-12T16:59:24.624Z,75.01
2023-03-12T17:01:51.710Z,75.04
2023-03-12T17:04:18.563Z,75.51
2023-03-12T17:06:45.606Z,75.77
2023-03-12T17:09:12.315Z,75.75
2023-03-12T17:11:39.485Z,76.01
2023-03-12T17:14:18.383Z,76.02
2023-03-12T17:16:45.421Z,75.73
2023-03-12T17:19:12.139Z,75.88
2023-03-12T17:21:39.222Z,75.94
2023-03-12T17:24:06.211Z,75.78
2023-03-12T17:26:33.097Z,75.99
2023-03-12T17:28:59.830Z,75.79
2023-03-12T17:31:26.614Z,76.21
2023-03-12T17:33:53.309Z,76.07
2023-03-12T17:36:20.083Z,76.23
2023-03-12T17:38:48.510Z,76.52
2023-03-12T17:41:26.075Z,76.61
2023-03-12T17:43:55.065Z,76.65
2023-03-12T17:46:22.125Z,76.96
2023-03-12T17:48:49.051Z,77.15
2023-03-12T17:51:16.043Z,77.38
2023-03-12T17:53:42.765Z,77.45
2023-03-12T17:56:12.658Z,77.93
2023-03-12T17:58:39.671Z,78.16
2023-03-12T18:01:06.723Z,77.95
2023-03-12T18:03:33.586Z,78.57
2023-03-12T18:06:00.318Z,78.48
2023-03-12T18:09:26.843Z,78.98
2023-03-12T18:12:53.568Z,79.42
2023-03-12T18:16:20.053Z,79.66
2023-03-12T18:23:38.891Z,80.62
2023-03-12T18:27:05.562Z,80.67
2023-03-12T18:33:15.152Z,81.13
2023-03-12T18:35:43.654Z,81.34
2023-03-12T18:38:10.400Z,81.53
2023-03-12T18:40:37.305Z,81.63
2023-03-12T18:44:03.755Z,82.22
2023-03-12T18:46:30.746Z,82.35
2023-03-12T18:49:02.998Z,82.72
2023-03-12T18:51:29.646Z,82.79
2023-03-12T18:53:56.516Z,83.20
2023-03-12T18:56:23.201Z,83.30
2023-03-12T18:58:49.861Z,83.26
2023-03-12T19:01:16.908Z,83.65
2023-03-12T19:04:43.324Z,83.90
2023-03-12T19:11:09.649Z,84.13
2023-03-12T19:13:36.967Z,84.65
2023-03-12T19:17:03.584Z,84.50
2023-03-12T19:20:30.193Z,84.64
2023-03-12T19:26:38.837Z,84.67
2023-03-12T19:29:05.679Z,84.75
2023-03-12T19:31:32.466Z,84.94
2023-03-12T19:33:59.250Z,85.07
2023-03-12T19:36:26.052Z,85.02
2023-03-12T19:38:52.738Z,85.43
2023-03-12T19:41:19.666Z,85.14
2023-03-12T19:43:46.481Z,85.45
2023-03-12T19:46:13.216Z,85.43
2023-03-12T19:48:40.120Z,85.54
2023-03-12T19:51:08.942Z,85.82
2023-03-12T19:53:36.355Z,85.63
2023-03-12T19:56:03.663Z,86.16
2023-03-12T19:58:30.441Z,86.06
2023-03-12T20:01:03.615Z,86.13
2023-03-12T20:03:31.874Z,86.42
2023-03-12T20:05:58.761Z,85.99
2023-03-12T20:08:34.566Z,86.32
2023-03-12T20:11:02.952Z,86.48
2023-03-12T20:13:29.695Z,86.43
2023-03-12T20:15:56.962Z,86.41
2023-03-12T20:18:23.696Z,86.79
2023-03-12T20:20:50.365Z,86.65
2023-03-12T20:23:17.190Z,86.75
2023-03-12T20:25:44.002Z,86.70
2023-03-12T20:28:11.103Z,86.79
2023-03-12T20:30:41.608Z,86.75
2023-03-12T20:33:08.750Z,87.12
2023-03-12T20:35:36.628Z,87.05
2023-03-12T20:38:04.438Z,86.87
2023-03-12T20:40:31.369Z,87.03
2023-03-12T20:42:58.102Z,87.01
2023-03-12T20:45:24.986Z,86.95
2023-03-12T20:47:54.066Z,87.01
2023-03-12T20:50:21.072Z,87.37
2023-03-12T20:52:48.119Z,87.44
2023-03-12T20:55:14.962Z,87.16
2023-03-12T20:57:41.834Z,87.66
2023-03-12T21:00:09.389Z,87.31
2023-03-12T21:02:36.248Z,87.55
2023-03-12T21:05:03.141Z,87.80
2023-03-12T21:07:29.928Z,87.96
2023-03-12T21:09:56.722Z,88.12
2023-03-12T21:12:23.494Z,87.79
2023-03-12T21:15:50.346Z,88.27
2023-03-12T21:18:17.475Z,88.10
2023-03-12T21:20:44.856Z,88.53
2023-03-12T21:23:12.204Z,88.74
2023-03-12T21:25:40.856Z,88.87
2023-03-12T21:28:08.617Z,88.50
2023-03-12T21:30:36.022Z,88.81
2023-03-12T21:34:02.489Z,88.96
2023-03-12T21:40:20.751Z,89.11
2023-03-12T21:42:47.681Z,89.14
2023-03-12T21:45:14.520Z,88.93
2023-03-12T21:47:41.610Z,88.82
2023-03-12T21:50:10.291Z,89.13
2023-03-12T21:52:42.912Z,89.08
2023-03-12T21:55:10.721Z,88.88
2023-03-12T21:57:37.979Z,88.77
2023-03-12T22:00:06.384Z,89.10
2023-03-12T22:02:33.256Z,88.98
2023-03-12T22:05:02.517Z,89.11
2023-03-12T22:07:30.323Z,88.83
2023-03-12T22:09:57.251Z,88.93
2023-03-12T22:12:24.133Z,89.04
2023-03-12T22:14:51.174Z,88.97
2023-03-12T22:17:18.459Z,89.25
2023-03-12T22:19:45.157Z,89.16
2023-03-12T22:22:12.156Z,89.04
2023-03-12T22:24:39.215Z,89.10
2023-03-12T22:27:07.599Z,88.91
2023-03-12T22:29:34.910Z,89.12
2023-03-12T22:32:02.124Z,89.06
2023-03-12T22:34:29.849Z,89.06
2023-03-12T22:36:56.732Z,89.01
2023-03-12T22:39:23.572Z,89.08
2023-03-12T22:42:50.132Z,89.31
2023-03-12T22:46:16.801Z,89.45
2023-03-12T22:48:45.125Z,89.02
2023-03-12T22:51:12.806Z,89.18
2023-03-12T22:53:40.243Z,89.45
2023-03-12T22:57:09.187Z,89.30
2023-03-12T22:59:38.448Z,89.48
2023-03-12T23:03:05.078Z,89.37
2023-03-12T23:05:34.247Z,89.34
2023-03-12T23:11:55.392Z,88.92
2023-03-12T23:14:22.488Z,89.26
2023-03-12T23:16:52.126Z,89.08
2023-03-12T23:19:19.008Z,89.01
2023-03-12T23:21:45.823Z,88.67
2023-03-12T23:24:12.581Z,89.13
2023-03-12T23:26:39.345Z,88.68
2023-03-12T23:29:06.426Z,89.04
2023-03-12T23:31:33.132Z,88.93
2023-03-12T23:33:59.921Z,88.95
2023-03-12T23:36:27.109Z,88.92
2023-03-12T23:38:53.755Z,88.70
2023-03-12T23:41:23.371Z,88.52
2023-03-12T23:43:50.733Z,88.56
2023-03-12T23:46:18.876Z,88.56
2023-03-12T23:48:45.969Z,88.95
2023-03-12T23:51:14.029Z,88.95
2023-03-12T23:53:42.588Z,88.61
2023-03-12T23:56:13.383Z,88.52
2023-03-12T23:58:40.574Z,88.84
